Time;durP1;ratioP1;P1;durP2;ratioP2;P2;SDS_P1;SDS_P2;PMS_P1;PMS_P2;Temp;Humidity;BMP_temperature;BMP_pressure;BME280_temperature;BME280_humidity;BME280_pressure;Samples;Min_cycle;Max_cycle;Signal;HPM_P1;HPM_P2
2023/09/26 00:00:29;;;;;;;6.90;6.20;;;;;;;22.96;66.88;99180.16;105295;1262;65850;-43
2023/09/26 00:02:56;;;;;;;6.70;6.10;;;;;;;22.96;66.69;99179.38;105205;1261;73224;-44
2023/09/26 00:05:24;;;;;;;9.30;6.00;;;;;;;22.96;66.89;99177.34;105367;1262;61212;-46
2023/09/26 00:07:52;;;;;;;7.10;6.30;;;;;;;22.95;66.72;99177.56;105528;1271;61221;-44
2023/09/26 00:10:20;;;;;;;7.10;6.40;;;;;;;22.95;66.67;99178.34;105297;1264;74658;-46
2023/09/26 00:12:48;;;;;;;7.00;6.30;;;;;;;22.96;66.83;99177.89;105188;1265;67421;-44
2023/09/26 00:15:15;;;;;;;7.50;5.90;;;;;;;22.95;66.82;99176.46;105235;1262;72598;-45
2023/09/26 00:17:43;;;;;;;6.70;6.10;;;;;;;22.95;66.84;99177.39;104969;1266;61262;-45
2023/09/26 00:20:27;;;;;;;8.30;6.50;;;;;;;22.94;66.62;99176.91;105106;1262;61169;-44
2023/09/26 00:22:55;;;;;;;7.20;5.90;;;;;;;22.94;66.64;99171.49;105413;1262;74641;-44
2023/09/26 00:25:23;;;;;;;6.30;5.70;;;;;;;22.93;66.48;99171.35;105374;1262;65816;-44
2023/09/26 00:27:52;;;;;;;6.50;5.70;;;;;;;22.93;66.80;99173.44;105160;1263;72255;-44
2023/09/26 00:30:20;;;;;;;7.00;5.90;;;;;;;22.93;66.80;99174.77;105350;1271;61243;-44
2023/09/26 00:32:48;;;;;;;7.30;5.80;;;;;;;22.93;66.71;99172.83;105490;1262;61166;-44
2023/09/26 00:35:17;;;;;;;7.00;6.30;;;;;;;22.92;66.67;99173.79;105291;1262;74603;-44
2023/09/26 00:37:49;;;;;;;7.00;6.00;;;;;;;22.92;66.74;99170.69;105173;1273;65693;-44
2023/09/26 00:40:20;;;;;;;7.50;6.20;;;;;;;22.92;66.76;99169.81;105111;1263;70610;-44
2023/09/26 00:42:48;;;;;;;6.60;5.90;;;;;;;22.92;66.46;99167.54;105501;1271;61165;-44
2023/09/26 00:45:15;;;;;;;6.70;6.00;;;;;;;22.92;66.57;99166.27;105585;1262;61650;-44
2023/09/26 00:47:43;;;;;;;6.40;5.80;;;;;;;22.91;66.75;99163.40;105366;1261;74602;-44
2023/09/26 00:50:14;;;;;;;6.40;5.80;;;;;;;22.91;66.56;99165.02;105298;1262;65441;-44
2023/09/26 00:52:46;;;;;;;6.80;5.50;;;;;;;22.91;66.60;99165.23;105241;1261;72932;-44
2023/09/26 00:55:15;;;;;;;7.30;5.60;;;;;;;22.90;66.73;99170.93;105282;1266;61290;-44
2023/09/26 00:57:42;;;;;;;6.20;5.60;;;;;;;22.90;66.70;99171.16;105473;1263;61349;-44
2023/09/26 01:00:15;;;;;;;6.70;5.90;;;;;;;22.90;66.59;99168.00;105309;1260;74858;-44
2023/09/26 01:02:42;;;;;;;6.40;5.70;;;;;;;22.90;66.57;99164.89;105083;1262;66475;-45
2023/09/26 01:05:10;;;;;;;7.60;6.00;;;;;;;22.90;66.53;99162.39;105058;1263;72634;-46
2023/09/26 01:07:38;;;;;;;6.20;5.40;;;;;;;22.89;66.77;99161.05;105128;1262;61161;-46
2023/09/26 01:10:10;;;;;;;6.00;5.40;;;;;;;22.89;66.70;99162.36;105419;1260;61405;-44
2023/09/26 01:12:39;;;;;;;7.10;5.90;;;;;;;22.88;66.52;99162.52;105168;1261;73577;-44
2023/09/26 01:15:08;;;;;;;6.40;5.50;;;;;;;22.88;66.71;99161.73;105197;1266;65840;-44
2023/09/26 01:17:36;;;;;;;9.00;5.80;;;;;;;22.88;66.72;99162.35;105355;1263;72366;-44
2023/09/26 01:20:15;;;;;;;5.90;5.40;;;;;;;22.89;66.68;99165.26;105420;1271;61270;-44
2023/09/26 01:22:45;;;;;;;6.80;5.90;;;;;;;22.88;66.69;99163.52;105516;1260;61226;-45
2023/09/26 01:25:16;;;;;;;6.10;5.50;;;;;;;22.88;66.44;99164.21;105166;1263;74594;-45
2023/09/26 01:27:44;;;;;;;7.10;5.50;;;;;;;22.87;66.54;99161.23;105253;1270;66820;-44
2023/09/26 01:30:12;;;;;;;7.60;5.60;;;;;;;22.87;66.72;99156.39;105587;1263;72634;-44
2023/09/26 01:32:40;;;;;;;6.10;5.30;;;;;;;22.87;66.56;99159.50;105608;1262;61281;-44
2023/09/26 01:35:08;;;;;;;5.70;5.10;;;;;;;22.87;66.72;99159.12;105622;1261;61323;-46
2023/09/26 01:37:35;;;;;;;6.10;5.20;;;;;;;22.86;66.54;99158.55;105526;1262;74330;-46
2023/09/26 01:40:03;;;;;;;6.40;5.50;;;;;;;22.86;66.49;99156.91;105519;1262;66051;-44
2023/09/26 01:42:31;;;;;;;5.60;5.10;;;;;;;22.86;66.60;99155.13;105272;1263;71132;-45
2023/09/26 01:44:58;;;;;;;6.00;5.40;;;;;;;22.86;66.57;99155.58;105418;1263;61248;-44
2023/09/26 01:47:44;;;;;;;5.60;5.00;;;;;;;22.86;66.48;99151.91;105419;1260;61266;-44
2023/09/26 01:50:11;;;;;;;6.00;5.40;;;;;;;22.86;66.49;99148.86;105381;1260;74453;-44
2023/09/26 01:52:39;;;;;;;6.10;5.50;;;;;;;22.86;66.46;99150.88;105381;1265;65110;-44
2023/09/26 01:55:12;;;;;;;7.30;5.40;;;;;;;22.85;66.58;99149.08;105269;1262;71884;-44
2023/09/26 01:57:39;;;;;;;5.70;4.80;;;;;;;22.85;66.37;99152.98;105275;1263;61308;-44
2023/09/26 02:00:13;;;;;;;5.20;4.70;;;;;;;22.85;66.45;99154.67;105247;1263;61336;-44
2023/09/26 02:02:45;;;;;;;5.70;4.90;;;;;;;22.85;66.37;99153.19;105120;1264;74445;-44
2023/09/26 02:05:13;;;;;;;7.10;5.00;;;;;;;22.84;66.51;99154.05;105203;1264;65787;-44
2023/09/26 02:07:41;;;;;;;5.70;5.00;;;;;;;22.84;66.45;99153.50;105417;1262;72314;-44
2023/09/26 02:10:09;;;;;;;7.70;5.20;;;;;;;22.84;66.67;99154.96;105127;1263;61270;-45
2023/09/26 02:12:44;;;;;;;5.50;5.00;;;;;;;22.83;66.44;99155.02;105142;1261;61349;-45
2023/09/26 02:15:12;;;;;;;6.70;5.10;;;;;;;22.83;66.49;99158.20;105265;1262;73457;-44
2023/09/26 02:17:40;;;;;;;5.20;4.70;;;;;;;22.82;66.50;99160.52;105468;1262;66334;-45
2023/09/26 02:20:14;;;;;;;6.50;5.20;;;;;;;22.83;66.37;99161.40;105529;1258;72421;-44
2023/09/26 02:22:47;;;;;;;5.90;5.30;;;;;;;22.83;66.44;99161.55;105433;1263;61231;-45
2023/09/26 02:25:16;;;;;;;5.60;4.90;;;;;;;22.83;66.39;99159.20;105303;1261;61254;-46
2023/09/26 02:27:43;;;;;;;5.20;4.70;;;;;;;22.82;66.33;99159.12;105202;1259;75463;-44
2023/09/26 02:30:16;;;;;;;5.50;5.00;;;;;;;22.82;66.41;99161.75;105355;1264;66194;-46
2023/09/26 02:32:43;;;;;;;7.30;5.20;;;;;;;22.81;66.38;99157.69;105443;1270;72651;-44
2023/09/26 02:35:12;;;;;;;6.00;4.90;;;;;;;22.81;66.35;99160.18;105462;1262;61369;-44
2023/09/26 02:37:40;;;;;;;5.20;4.60;;;;;;;22.81;66.40;99159.55;105405;1261;61263;-44
2023/09/26 02:40:09;;;;;;;6.10;4.60;;;;;;;22.81;66.28;99161.80;105340;1261;74459;-44
2023/09/26 02:42:43;;;;;;;6.50;4.90;;;;;;;22.81;66.37;99158.23;105326;1264;65194;-44
2023/09/26 02:45:14;;;;;;;5.00;4.60;;;;;;;22.81;66.31;99160.94;105122;1263;72622;-44
2023/09/26 02:47:42;;;;;;;7.50;4.60;;;;;;;22.81;66.41;99158.05;105389;1264;61350;-44
2023/09/26 02:50:10;;;;;;;5.60;4.80;;;;;;;22.80;66.67;99157.27;105518;1263;61264;-44
2023/09/26 02:52:40;;;;;;;5.50;5.00;;;;;;;22.80;66.22;99159.77;105258;1263;74445;-45
2023/09/26 02:55:08;;;;;;;5.10;4.60;;;;;;;22.80;66.31;99158.41;105491;1260;66267;-45
2023/09/26 02:57:36;;;;;;;5.20;4.70;;;;;;;22.80;66.22;99157.02;105460;1263;71410;-45
2023/09/26 03:00:16;;;;;;;6.70;4.70;;;;;;;22.79;66.39;99159.42;105169;1261;61251;-46
2023/09/26 03:02:45;;;;;;;5.50;4.80;;;;;;;22.79;66.36;99161.04;105369;1263;61375;-45
2023/09/26 03:05:15;;;;;;;5.20;4.70;;;;;;;22.79;66.13;99163.39;105488;1261;73195;-46
2023/09/26 03:07:42;;;;;;;5.10;4.50;;;;;;;22.78;66.34;99161.10;105512;1264;65523;-44
2023/09/26 03:10:10;;;;;;;7.20;4.70;;;;;;;22.78;66.52;99160.95;105471;1260;72764;-44
2023/09/26 03:12:43;;;;;;;5.10;4.60;;;;;;;22.78;66.30;99162.33;105098;1264;61246;-44
2023/09/26 03:15:12;;;;;;;4.70;4.30;;;;;;;22.78;66.34;99160.92;105117;1262;61253;-44
2023/09/26 03:17:39;;;;;;;6.60;4.90;;;;;;;22.78;66.26;99161.08;105155;1261;72459;-45
2023/09/26 03:20:14;;;;;;;5.40;4.90;;;;;;;22.77;66.27;99158.96;105347;1263;66132;-44
2023/09/26 03:22:42;;;;;;;6.00;5.00;;;;;;;22.77;66.28;99162.54;105210;1264;71488;-44
2023/09/26 03:25:10;;;;;;;5.00;4.30;;;;;;;22.76;66.42;99160.65;105064;1264;61247;-44
2023/09/26 03:27:38;;;;;;;7.30;4.70;;;;;;;22.76;66.42;99164.44;105101;1262;61286;-44
2023/09/26 03:30:06;;;;;;;5.00;4.40;;;;;;;22.75;66.51;99164.29;105082;1262;74610;-45
2023/09/26 03:32:34;;;;;;;5.20;4.40;;;;;;;22.76;66.12;99164.60;105431;1263;66247;-44
2023/09/26 03:35:01;;;;;;;6.00;4.60;;;;;;;22.75;66.18;99161.38;105185;1261;72627;-44
2023/09/26 03:37:28;;;;;;;5.20;4.60;;;;;;;22.75;66.07;99158.80;105132;1270;61369;-45
2023/09/26 03:39:56;;;;;;;5.10;4.70;;;;;;;22.74;66.04;99158.33;105398;1261;61339;-44
2023/09/26 03:42:24;;;;;;;4.60;4.20;;;;;;;22.74;66.27;99161.29;105141;1261;74952;-44
2023/09/26 03:44:52;;;;;;;5.00;4.40;;;;;;;22.74;66.03;99161.59;105271;1262;65503;-44
2023/09/26 03:47:19;;;;;;;5.20;4.00;;;;;;;22.74;66.14;99162.06;105324;1260;72609;-44
2023/09/26 03:49:51;;;;;;;4.60;4.20;;;;;;;22.74;66.21;99167.27;105340;1262;61305;-45
2023/09/26 03:52:19;;;;;;;4.90;4.40;;;;;;;22.73;66.24;99169.37;105447;1263;61266;-45
2023/09/26 03:54:46;;;;;;;4.80;4.30;;;;;;;22.73;66.24;99168.26;105200;1263;75128;-45
2023/09/26 03:57:13;;;;;;;4.80;4.30;;;;;;;22.73;66.21;99171.45;105220;1263;65055;-45
2023/09/26 03:59:40;;;;;;;5.20;4.50;;;;;;;22.73;66.02;99169.52;105538;1261;72314;-44
2023/09/26 04:02:08;;;;;;;5.00;4.50;;;;;;;22.72;65.96;99164.02;105119;1263;61277;-46
2023/09/26 04:04:36;;;;;;;4.60;4.10;;;;;;;22.72;66.07;99165.65;105121;1260;61257;-44
2023/09/26 04:07:04;;;;;;;4.60;4.00;;;;;;;22.71;66.03;99162.52;105329;1257;74396;-44
2023/09/26 04:09:33;;;;;;;4.60;4.20;;;;;;;22.71;66.06;99165.39;105523;1262;66105;-44
2023/09/26 04:12:03;;;;;;;5.20;4.40;;;;;;;22.71;65.94;99166.54;105502;1260;72605;-44
2023/09/26 04:14:30;;;;;;;4.00;3.70;;;;;;;22.71;65.94;99167.25;105475;1257;61380;-43
2023/09/26 04:16:58;;;;;;;4.40;4.00;;;;;;;22.70;65.99;99165.12;105196;1260;61317;-45
2023/09/26 04:19:25;;;;;;;4.80;4.40;;;;;;;22.69;66.13;99163.70;105483;1262;74616;-44
2023/09/26 04:21:53;;;;;;;4.50;4.10;;;;;;;22.69;65.93;99163.45;105242;1260;66832;-44
2023/09/26 04:24:21;;;;;;;3.90;3.60;;;;;;;22.68;65.96;99161.08;105365;1258;72540;-44
2023/09/26 04:26:48;;;;;;;4.30;3.90;;;;;;;22.67;65.99;99163.15;105339;1262;61280;-45
2023/09/26 04:29:16;;;;;;;4.40;4.00;;;;;;;22.67;65.94;99161.58;105313;1261;61281;-44
2023/09/26 04:31:43;;;;;;;3.90;3.60;;;;;;;22.66;65.81;99163.20;105076;1263;74591;-44
2023/09/26 04:34:10;;;;;;;5.10;3.80;;;;;;;22.65;65.93;99168.41;105207;1264;66714;-45
2023/09/26 04:36:39;;;;;;;5.50;3.60;;;;;;;22.65;65.77;99167.71;105136;1260;73899;-45
2023/09/26 04:39:08;;;;;;;5.20;4.00;;;;;;;22.65;65.73;99168.61;105221;1264;61247;-45
2023/09/26 04:41:35;;;;;;;5.70;4.00;;;;;;;22.64;65.91;99171.48;105213;1260;61282;-45
2023/09/26 04:44:03;;;;;;;5.40;3.90;;;;;;;22.64;66.01;99172.25;105061;1263;74631;-45
2023/09/26 04:46:30;;;;;;;4.60;4.00;;;;;;;22.64;65.92;99175.91;105082;1263;65316;-44
2023/09/26 04:48:58;;;;;;;4.20;3.80;;;;;;;22.63;65.80;99171.14;105145;1261;72681;-45
2023/09/26 04:51:25;;;;;;;4.40;3.90;;;;;;;22.63;65.76;99173.79;105370;1267;61243;-46
2023/09/26 04:53:52;;;;;;;4.20;3.80;;;;;;;22.62;65.84;99172.92;105360;1259;61353;-43
2023/09/26 04:56:21;;;;;;;5.00;3.90;;;;;;;22.63;65.82;99178.14;105282;1263;74040;-40
2023/09/26 04:58:49;;;;;;;4.60;4.10;;;;;;;22.63;65.73;99182.52;105071;1260;68374;-44
2023/09/26 05:01:17;;;;;;;4.50;4.10;;;;;;;22.63;65.78;99183.07;105274;1258;72031;-47
2023/09/26 05:03:44;;;;;;;5.10;4.20;;;;;;;22.61;65.80;99180.59;105383;1262;61263;-47
2023/09/26 05:06:12;;;;;;;6.80;4.40;;;;;;;22.62;66.02;99184.67;105174;1263;61302;-44
2023/09/26 05:08:40;;;;;;;4.40;4.00;;;;;;;22.62;66.11;99190.52;105372;1263;75764;-44
2023/09/26 05:11:15;;;;;;;4.30;3.90;;;;;;;22.61;66.15;99188.37;105101;1261;65071;-44
2023/09/26 05:13:42;;;;;;;5.50;4.10;;;;;;;22.61;66.01;99189.92;105138;1261;72240;-43
2023/09/26 05:16:10;;;;;;;4.70;4.30;;;;;;;22.60;66.07;99193.55;105265;1263;61318;-44
2023/09/26 05:18:38;;;;;;;5.20;4.30;;;;;;;22.59;66.05;99192.35;105336;1260;61381;-46
2023/09/26 05:21:06;;;;;;;6.80;4.40;;;;;;;22.59;66.20;99189.38;106445;1259;74604;-46
2023/09/26 05:23:34;;;;;;;9.10;4.60;;;;;;;22.59;66.52;99192.11;104998;1262;66215;-44
2023/09/26 05:26:06;;;;;;;7.60;4.60;;;;;;;22.58;66.48;99194.11;105082;1261;71494;-46
2023/09/26 05:28:33;;;;;;;5.10;4.60;;;;;;;22.58;66.66;99195.75;105298;1262;61954;-46
2023/09/26 05:31:00;;;;;;;5.50;4.40;;;;;;;22.58;66.32;99194.56;104922;1260;61343;-45
2023/09/26 05:33:29;;;;;;;5.90;4.60;;;;;;;22.57;66.55;99193.67;104935;1260;74212;-45
2023/09/26 05:35:56;;;;;;;7.60;4.70;;;;;;;22.56;66.40;99198.70;105007;1263;66266;-49
2023/09/26 05:38:26;;;;;;;6.30;4.40;;;;;;;22.55;66.62;99197.02;104829;1263;72771;-44
2023/09/26 05:40:53;;;;;;;5.10;4.50;;;;;;;22.55;66.81;99199.29;104960;1262;63677;-41
2023/09/26 05:43:21;;;;;;;5.30;4.80;;;;;;;22.54;66.89;99204.05;105082;1260;61349;-46
2023/09/26 05:45:49;;;;;;;5.90;4.50;;;;;;;22.54;67.03;99201.47;104853;1263;75065;-44
2023/09/26 05:48:21;;;;;;;6.10;4.70;;;;;;;22.55;67.20;99208.52;104855;1262;66782;-52
2023/09/26 05:50:56;;;;;;;5.20;4.60;;;;;;;22.55;67.32;99209.08;104871;1257;72326;-43
2023/09/26 05:53:24;;;;;;;12.20;4.90;;;;;;;22.56;67.33;99212.23;105408;1262;62198;-44
2023/09/26 05:55:55;;;;;;;7.90;4.90;;;;;;;22.57;67.54;99211.77;105100;1260;61308;-46
2023/09/26 05:58:24;;;;;;;7.60;4.90;;;;;;;22.58;67.52;99215.95;105160;1260;74612;-45
2023/09/26 06:00:53;;;;;;;5.30;4.30;;;;;;;22.60;67.54;99214.23;105039;1263;67399;-47
2023/09/26 06:03:21;;;;;;;6.50;4.80;;;;;;;22.63;67.75;99216.30;105283;1263;72574;-44
2023/09/26 06:05:50;;;;;;;5.40;4.80;;;;;;;22.65;67.82;99215.67;104931;1258;61350;-44
2023/09/26 06:08:18;;;;;;;5.80;4.60;;;;;;;22.67;67.67;99215.10;105271;1258;61267;-45
2023/09/26 06:10:52;;;;;;;6.90;4.60;;;;;;;22.69;67.63;99214.73;105046;1263;74683;-45
2023/09/26 06:13:20;;;;;;;5.20;4.70;;;;;;;22.71;67.74;99215.64;104921;1260;67939;-44
2023/09/26 06:15:47;;;;;;;5.40;4.70;;;;;;;22.73;67.71;99214.45;105284;1257;71135;-44
2023/09/26 06:18:15;;;;;;;5.60;4.80;;;;;;;22.75;67.84;99216.15;104740;1262;61249;-45
2023/09/26 06:20:44;;;;;;;5.40;4.70;;;;;;;22.76;67.65;99217.23;105131;1260;61378;-44
2023/09/26 06:23:12;;;;;;;5.80;4.70;;;;;;;22.78;67.67;99216.48;105354;1262;75179;-44
2023/09/26 06:25:39;;;;;;;5.10;4.60;;;;;;;22.79;67.50;99214.02;104823;1258;66501;-46
2023/09/26 06:28:22;;;;;;;6.70;4.20;;;;;;;22.80;67.60;99217.50;104735;1260;73600;-43
2023/09/26 06:30:50;;;;;;;5.50;4.40;;;;;;;22.81;67.49;99212.23;104879;1260;61270;-43
2023/09/26 06:33:18;;;;;;;5.10;4.60;;;;;;;22.82;67.45;99213.20;105626;1258;61267;-45
2023/09/26 06:35:47;;;;;;;5.50;4.90;;;;;;;22.83;67.44;99215.17;105376;1257;74828;-45
2023/09/26 06:38:15;;;;;;;5.30;4.50;;;;;;;22.84;67.40;99216.30;105478;1262;68265;-47
2023/09/26 06:40:43;;;;;;;7.80;4.70;;;;;;;22.85;67.44;99222.35;105054;1259;73972;-41
2023/09/26 06:43:11;;;;;;;5.30;4.10;;;;;;;22.88;67.42;99225.95;108753;1258;59729;-40
2023/09/26 06:45:39;;;;;;;9.60;4.50;;;;;;;22.90;67.52;99233.45;105768;1260;61437;-40
2023/09/26 06:48:06;;;;;;;7.30;5.10;;;;;;;22.94;67.43;99234.42;105518;1264;74414;-43
2023/09/26 06:50:34;;;;;;;5.70;4.40;;;;;;;22.96;67.39;99239.27;105016;1259;65888;-45
2023/09/26 06:53:02;;;;;;;5.50;4.80;;;;;;;22.99;67.52;99237.73;105009;1260;73865;-46
2023/09/26 06:55:30;;;;;;;5.40;4.60;;;;;;;23.02;67.68;99237.26;105460;1260;61638;-46
2023/09/26 06:57:58;;;;;;;5.60;4.30;;;;;;;23.04;67.52;99239.81;105221;1262;61365;-51
2023/09/26 07:00:27;;;;;;;5.40;4.50;;;;;;;23.06;67.39;99237.79;105265;1264;74824;-43
2023/09/26 07:02:57;;;;;;;5.40;4.90;;;;;;;23.09;67.54;99237.25;105163;1260;67309;-42
2023/09/26 07:05:26;;;;;;;8.80;4.80;;;;;;;23.11;67.38;99241.84;105216;1259;72212;-43
2023/09/26 07:07:54;;;;;;;6.00;4.80;;;;;;;23.13;67.40;99241.61;104766;1260;61303;-44
2023/09/26 07:10:25;;;;;;;9.90;5.20;;;;;;;23.17;67.60;99243.65;104957;1258;61169;-43
2023/09/26 07:12:54;;;;;;;5.50;4.80;;;;;;;23.20;67.51;99244.91;105234;1263;75777;-44
2023/09/26 07:15:25;;;;;;;11.00;5.50;;;;;;;23.22;67.39;99245.52;105248;1262;67386;-43
2023/09/26 07:17:52;;;;;;;6.40;4.90;;;;;;;23.24;67.35;99246.00;105128;1260;72356;-43
2023/09/26 07:20:21;;;;;;;6.50;4.90;;;;;;;23.27;67.41;99247.95;105026;1259;61158;-43
2023/09/26 07:22:49;;;;;;;6.30;4.60;;;;;;;23.30;67.63;99251.16;104969;1259;61341;-44
2023/09/26 07:25:17;;;;;;;7.80;4.80;;;;;;;23.33;67.77;99252.84;104909;1261;75223;-46
2023/09/26 07:27:45;;;;;;;7.40;4.80;;;;;;;23.36;67.56;99255.21;105018;1262;67213;-42
2023/09/26 07:30:19;;;;;;;5.90;4.90;;;;;;;23.39;67.61;99254.46;105007;1259;74249;-47
2023/09/26 07:32:47;;;;;;;8.50;4.80;;;;;;;23.43;67.75;99255.17;105202;1262;61362;-44
2023/09/26 07:35:15;;;;;;;7.80;4.70;;;;;;;23.46;67.73;99255.70;105457;1258;61337;-42
2023/09/26 07:37:51;;;;;;;10.90;4.80;;;;;;;23.48;67.64;99255.29;105207;1264;74684;-43
2023/09/26 07:40:27;;;;;;;12.10;5.50;;;;;;;23.51;67.53;99262.16;106835;1260;65625;-45
2023/09/26 07:43:00;;;;;;;5.90;4.70;;;;;;;23.53;67.34;99257.38;105222;1264;71543;-41
2023/09/26 07:45:28;;;;;;;7.00;5.20;;;;;;;23.54;67.28;99254.85;105286;1260;61238;-43
2023/09/26 07:47:55;;;;;;;6.00;4.80;;;;;;;23.56;67.51;99255.69;105157;1258;61468;-42
2023/09/26 07:50:23;;;;;;;6.70;4.80;;;;;;;23.58;67.50;99260.03;106529;1257;75492;-44
2023/09/26 07:52:52;;;;;;;5.50;4.90;;;;;;;23.59;67.51;99256.16;105321;1262;67447;-45
2023/09/26 07:56:05;;;;;;;5.60;5.00;;;;;;;23.61;67.34;99253.56;104846;1258;70939;-46
2023/09/26 07:58:32;;;;;;;5.90;4.90;;;;;;;23.62;67.24;99257.48;104716;1266;61231;-45
2023/09/26 08:01:00;;;;;;;7.30;5.10;;;;;;;23.63;67.45;99257.91;105081;1260;61253;-42
2023/09/26 08:03:28;;;;;;;7.10;5.10;;;;;;;23.64;67.39;99255.30;105253;1261;74538;-50
2023/09/26 08:06:00;;;;;;;8.00;5.10;;;;;;;23.66;67.42;99254.02;105144;1257;67051;-45
2023/09/26 08:08:29;;;;;;;14.40;7.60;;;;;;;23.66;67.33;99250.30;105379;1262;72543;-44
2023/09/26 08:11:09;;;;;;;16.90;8.00;;;;;;;23.68;67.28;99251.66;104921;1260;61852;-43
2023/09/26 08:13:38;;;;;;;15.70;8.40;;;;;;;23.68;67.54;99254.02;105117;1260;61273;-41
2023/09/26 08:16:05;;;;;;;14.60;8.90;;;;;;;23.70;67.77;99252.65;105012;1261;74836;-41
2023/09/26 08:18:33;;;;;;;13.50;9.70;;;;;;;23.70;67.71;99252.67;105258;1262;66111;-41
2023/09/26 08:21:01;;;;;;;12.50;9.00;;;;;;;23.71;67.62;99251.36;105213;1259;73704;-41
2023/09/26 08:23:28;;;;;;;13.30;9.20;;;;;;;23.71;67.58;99250.58;104882;1264;61155;-42
2023/09/26 08:26:00;;;;;;;12.50;8.90;;;;;;;23.72;67.46;99252.48;105014;1258;61244;-43
2023/09/26 08:28:31;;;;;;;12.70;8.90;;;;;;;23.72;67.28;99250.45;106099;1257;75781;-43
2023/09/26 08:31:05;;;;;;;14.90;9.80;;;;;;;23.73;67.23;99250.48;105114;1263;66359;-41
2023/09/26 08:33:35;;;;;;;16.30;9.60;;;;;;;23.73;67.36;99249.25;106100;1262;73673;-42
2023/09/26 08:36:12;;;;;;;16.10;9.30;;;;;;;23.73;67.18;99251.11;106780;1258;61175;-40
2023/09/26 08:38:39;;;;;;;12.60;9.20;;;;;;;23.74;66.83;99250.30;108927;1259;61296;-43
2023/09/26 08:41:07;;;;;;;15.90;8.80;;;;;;;23.75;67.00;99249.20;108929;1257;74772;-45
2023/09/26 08:43:35;;;;;;;13.10;9.40;;;;;;;23.75;66.70;99250.02;108769;1258;65422;-45
2023/09/26 08:46:04;;;;;;;14.80;9.00;;;;;;;23.77;66.42;99253.40;106718;1263;72852;-42
2023/09/26 08:48:33;;;;;;;12.60;9.20;;;;;;;23.78;66.21;99250.00;105265;1259;61363;-44
2023/09/26 08:51:01;;;;;;;16.40;8.20;;;;;;;23.79;66.43;99249.64;105091;1264;61243;-42
2023/09/26 08:53:29;;;;;;;16.10;8.80;;;;;;;23.81;66.30;99246.89;105326;1258;73774;-41
2023/09/26 08:55:57;;;;;;;16.30;9.40;;;;;;;23.82;66.25;99247.33;105261;1260;67075;-42
2023/09/26 08:58:25;;;;;;;11.50;9.10;;;;;;;23.83;66.02;99243.11;105123;1257;71793;-44
2023/09/26 09:00:54;;;;;;;14.80;9.10;;;;;;;23.84;65.78;99243.14;105161;1258;61154;-40
2023/09/26 09:03:21;;;;;;;13.60;8.80;;;;;;;23.84;65.55;99244.32;105063;1259;61308;-44
2023/09/26 09:05:49;;;;;;;14.20;8.80;;;;;;;23.85;65.56;99239.90;105005;1260;74302;-42
2023/09/26 09:08:20;;;;;;;15.30;8.50;;;;;;;23.87;65.13;99245.09;104908;1260;66531;-42
2023/09/26 09:10:52;;;;;;;13.10;9.60;;;;;;;23.87;65.21;99237.78;105040;1260;72790;-45
2023/09/26 09:13:27;;;;;;;16.60;10.40;;;;;;;23.89;65.05;99238.04;105269;1261;61270;-45
2023/09/26 09:16:16;;;;;;;16.00;11.40;;;;;;;23.89;65.03;99238.27;104816;1265;61368;-44
2023/09/26 09:18:46;;;;;;;17.60;10.80;;;;;;;23.90;65.08;99234.94;104992;1261;75453;-43
2023/09/26 09:21:35;;;;;;;14.60;10.30;;;;;;;23.90;64.79;99233.16;104959;1260;66352;-45
2023/09/26 09:24:06;;;;;;;15.90;10.50;;;;;;;23.92;64.75;99232.81;104917;1259;74310;-42
2023/09/26 09:26:35;;;;;;;19.20;10.50;;;;;;;23.93;64.61;99231.20;104932;1263;61238;-44
2023/09/26 09:29:19;;;;;;;22.40;9.70;;;;;;;23.94;64.47;99231.63;104949;1260;61163;-43
2023/09/26 09:31:48;;;;;;;18.20;10.10;;;;;;;23.96;64.28;99227.69;105069;1260;74590;-43
2023/09/26 09:34:17;;;;;;;12.40;9.30;;;;;;;23.97;63.85;99228.98;105109;1263;67506;-45
2023/09/26 09:36:45;;;;;;;16.00;9.00;;;;;;;23.99;63.33;99224.42;105083;1262;72679;-44
2023/09/26 09:39:13;;;;;;;14.20;8.90;;;;;;;24.00;63.09;99224.22;105001;1262;61271;-46
2023/09/26 09:41:40;;;;;;;14.40;8.10;;;;;;;24.03;62.60;99222.51;105046;1262;61243;-45
2023/09/26 09:44:08;;;;;;;14.70;8.00;;;;;;;24.05;62.14;99220.44;104968;1260;74707;-47
2023/09/26 09:46:38;;;;;;;13.50;8.60;;;;;;;24.06;61.60;99215.96;104966;1260;66976;-45
2023/09/26 09:49:10;;;;;;;16.20;7.70;;;;;;;24.08;61.35;99216.72;104878;1260;73425;-43
2023/09/26 09:51:45;;;;;;;12.80;7.70;;;;;;;24.09;61.03;99218.48;105213;1260;61294;-46
2023/09/26 09:54:14;;;;;;;10.50;7.10;;;;;;;24.11;60.76;99213.77;105055;1262;61637;-50
2023/09/26 09:56:45;;;;;;;12.90;6.80;;;;;;;24.12;60.12;99209.48;105198;1260;75446;-50
2023/09/26 09:59:12;;;;;;;13.60;7.00;;;;;;;24.14;60.77;99207.51;104889;1258;64815;-43
2023/09/26 10:01:45;;;;;;;10.30;6.80;;;;;;;24.17;61.14;99206.18;104971;1264;73751;-46
2023/09/26 10:04:15;;;;;;;9.80;6.90;;;;;;;24.20;61.51;99204.60;105328;1261;61350;-39
2023/09/26 10:06:43;;;;;;;11.70;6.70;;;;;;;24.21;61.83;99202.94;105102;1260;61511;-41
2023/09/26 10:09:12;;;;;;;10.80;6.60;;;;;;;24.24;61.55;99200.13;105179;1258;74439;-42
2023/09/26 10:11:40;;;;;;;9.90;6.10;;;;;;;24.26;61.52;99202.03;105168;1260;66310;-42
2023/09/26 10:14:10;;;;;;;9.50;5.90;;;;;;;24.28;61.46;99195.13;104947;1260;73315;-43
2023/09/26 10:16:38;;;;;;;10.50;6.00;;;;;;;24.30;61.31;99195.66;105073;1262;61277;-40
2023/09/26 10:19:05;;;;;;;8.60;6.00;;;;;;;24.32;60.95;99190.86;104953;1260;61244;-42
2023/09/26 10:21:35;;;;;;;7.80;5.70;;;;;;;24.34;60.79;99191.84;105247;1261;75744;-42
2023/09/26 10:24:05;;;;;;;7.90;5.60;;;;;;;24.36;60.49;99188.93;104988;1262;67317;-42
2023/09/26 10:26:33;;;;;;;8.20;5.70;;;;;;;24.37;60.59;99188.81;104882;1260;72660;-42
2023/09/26 10:29:05;;;;;;;10.60;5.50;;;;;;;24.40;60.61;99186.83;105134;1262;61474;-41
2023/09/26 10:31:33;;;;;;;10.00;5.90;;;;;;;24.42;60.49;99185.25;104969;1257;61185;-45
2023/09/26 10:34:01;;;;;;;9.10;5.50;;;;;;;24.44;60.50;99182.72;104937;1260;74617;-43
2023/09/26 10:36:29;;;;;;;8.40;5.40;;;;;;;24.47;60.58;99181.14;105028;1260;65823;-46
2023/09/26 10:39:00;;;;;;;11.50;5.90;;;;;;;24.50;60.43;99170.73;105125;1262;72628;-47
2023/09/26 10:41:28;;;;;;;7.70;5.20;;;;;;;24.53;60.49;99172.55;105185;1262;61260;-43
2023/09/26 10:43:55;;;;;;;9.50;5.40;;;;;;;24.56;60.38;99169.78;104828;1260;61285;-45
2023/09/26 10:46:44;;;;;;;7.10;4.80;;;;;;;24.58;60.28;99170.08;104883;1260;76569;-45
2023/09/26 10:49:11;;;;;;;6.90;5.00;;;;;;;24.62;60.20;99171.73;105079;1258;66605;-47
2023/09/26 10:51:39;;;;;;;7.70;4.90;;;;;;;24.64;60.15;99172.33;105443;1260;72600;-47
2023/09/26 10:54:06;;;;;;;9.30;4.90;;;;;;;24.66;60.07;99169.81;105022;1259;61304;-48
2023/09/26 10:56:34;;;;;;;13.40;5.00;;;;;;;24.69;60.17;99170.66;105114;1262;61167;-45
2023/09/26 10:59:02;;;;;;;8.60;4.30;;;;;;;24.71;60.27;99168.69;104683;1259;74745;-45
2023/09/26 11:01:39;;;;;;;11.60;5.60;;;;;;;24.73;60.33;99167.48;104946;1262;65721;-43
2023/09/26 11:04:06;;;;;;;7.00;4.80;;;;;;;24.76;60.39;99169.02;105084;1262;72347;-44
2023/09/26 11:06:34;;;;;;;7.20;4.80;;;;;;;24.77;60.61;99165.06;105491;1261;61512;-42
2023/09/26 11:09:03;;;;;;;7.70;4.70;;;;;;;24.77;60.52;99164.39;105206;1257;61234;-43
2023/09/26 11:11:31;;;;;;;8.40;4.40;;;;;;;24.78;60.43;99160.73;105394;1257;74341;-40
2023/09/26 11:13:58;;;;;;;8.60;4.40;;;;;;;24.79;60.59;99160.67;105068;1262;66060;-41
2023/09/26 11:16:26;;;;;;;9.10;4.60;;;;;;;24.80;60.57;99158.91;105143;1258;72363;-41
2023/09/26 11:18:54;;;;;;;5.20;4.00;;;;;;;24.81;60.65;99157.77;105141;1259;61365;-44
2023/09/26 11:21:22;;;;;;;8.00;4.30;;;;;;;24.82;60.57;99154.48;104980;1258;61258;-43
2023/09/26 11:23:56;;;;;;;9.40;4.00;;;;;;;24.83;60.40;99151.08;105048;1260;73585;-38
2023/09/26 11:26:24;;;;;;;7.50;4.40;;;;;;;24.84;60.51;99146.63;104854;1261;64984;-39
2023/09/26 11:28:52;;;;;;;9.30;4.30;;;;;;;24.84;60.40;99152.04;104999;1264;74376;-47
2023/09/26 11:31:19;;;;;;;8.10;4.40;;;;;;;24.84;59.96;99147.73;104984;1264;61335;-42
2023/09/26 11:33:47;;;;;;;10.80;4.40;;;;;;;24.85;59.43;99151.10;105403;1258;61378;-41